createdAt,value
2023-02-22T00:00:18.089Z,96831.97
2023-02-22T00:02:56.237Z,96832.19
2023-02-22T00:05:28.830Z,96832.56
2023-02-22T00:08:00.378Z,96829.91
2023-02-22T00:10:32.046Z,96825.75
2023-02-22T00:13:05.981Z,96824.94
2023-02-22T00:15:37.591Z,96831.81
2023-02-22T00:18:12.012Z,96824.22
2023-02-22T00:20:43.599Z,96827.78
2023-02-22T00:23:18.546Z,96827.72
2023-02-22T00:25:50.802Z,96826.03
2023-02-22T00:28:22.913Z,96825.16
2023-02-22T00:30:54.572Z,96830.41
2023-02-22T00:33:26.185Z,96827.84
2023-02-22T00:35:58.610Z,96829.00
2023-02-22T00:38:35.810Z,96830.56
2023-02-22T00:41:08.115Z,96820.53
2023-02-22T00:43:39.662Z,96828.16
2023-02-22T00:46:13.720Z,96827.19
2023-02-22T00:48:45.367Z,96831.53
2023-02-22T00:51:17.282Z,96830.00
2023-02-22T00:53:49.122Z,96824.88
2023-02-22T00:56:20.893Z,96829.34
2023-02-22T00:58:52.527Z,96836.09
2023-02-22T01:01:24.419Z,96840.03
2023-02-22T01:03:56.127Z,96828.47
2023-02-22T01:06:28.144Z,96828.63
2023-02-22T01:08:59.963Z,96835.19
2023-02-22T01:11:31.638Z,96828.13
2023-02-22T01:14:03.298Z,96825.06
2023-02-22T01:16:35.631Z,96826.13
2023-02-22T01:19:07.394Z,96827.09
2023-02-22T01:21:40.734Z,96827.66
2023-02-22T01:24:12.613Z,96824.75
2023-02-22T01:26:50.641Z,96823.19
2023-02-22T01:29:22.348Z,96816.53
2023-02-22T01:31:56.359Z,96819.25
2023-02-22T01:34:28.675Z,96820.75
2023-02-22T01:37:00.796Z,96812.81
2023-02-22T01:39:33.047Z,96815.72
2023-02-22T01:42:04.676Z,96810.16
2023-02-22T01:44:38.865Z,96814.28
2023-02-22T01:47:10.425Z,96809.34
2023-02-22T01:49:47.700Z,96806.41
2023-02-22T01:52:21.514Z,96804.00
2023-02-22T01:54:58.592Z,96805.84
2023-02-22T01:57:36.689Z,96810.78
2023-02-22T02:00:13.591Z,96803.94
2023-02-22T02:02:51.022Z,96803.75
2023-02-22T02:05:29.151Z,96806.63
2023-02-22T02:08:13.322Z,96806.06
2023-02-22T02:10:48.542Z,96802.09
2023-02-22T02:13:20.568Z,96804.00
2023-02-22T02:15:56.847Z,96809.22
2023-02-22T02:18:29.782Z,96805.28
2023-02-22T02:21:39.182Z,96794.94
2023-02-22T02:24:32.723Z,96797.31
2023-02-22T02:27:27.485Z,96805.00
2023-02-22T02:30:24.010Z,96799.97
2023-02-22T02:33:01.491Z,96794.66
2023-02-22T02:35:45.290Z,96788.97
2023-02-22T02:38:38.506Z,96788.97
2023-02-22T02:41:18.624Z,96791.03
2023-02-22T02:44:07.900Z,96780.25
2023-02-22T02:46:58.149Z,96783.03
2023-02-22T02:49:51.601Z,96781.75
2023-02-22T02:52:27.286Z,96781.53
2023-02-22T02:55:01.735Z,96775.97
2023-02-22T02:57:33.413Z,96781.22
2023-02-22T03:00:07.811Z,96781.06
2023-02-22T03:03:02.326Z,96779.97
2023-02-22T03:05:52.446Z,96780.13
2023-02-22T03:08:47.717Z,96785.84
2023-02-22T03:11:30.518Z,96782.34
2023-02-22T03:14:22.311Z,96779.97
2023-02-22T03:16:57.040Z,96785.56
2023-02-22T03:20:03.967Z,96785.31
2023-02-22T03:22:55.635Z,96789.06
2023-02-22T03:25:43.351Z,96790.94
2023-02-22T03:28:19.698Z,96786.94
2023-02-22T03:31:06.035Z,96788.03
2023-02-22T03:33:48.873Z,96782.16
2023-02-22T03:36:34.002Z,96782.69
2023-02-22T03:39:13.693Z,96782.97
2023-02-22T03:41:49.679Z,96781.56
2023-02-22T03:44:27.536Z,96776.81
2023-02-22T03:47:07.385Z,96774.66
2023-02-22T03:49:53.629Z,96783.63
2023-02-22T03:52:25.659Z,96782.53
2023-02-22T03:54:57.526Z,96776.47
2023-02-22T03:57:35.429Z,96788.69
2023-02-22T04:00:12.361Z,96789.38
2023-02-22T04:02:49.351Z,96785.09
2023-02-22T04:05:27.161Z,96782.09
2023-02-22T04:07:58.928Z,96787.75
2023-02-22T04:10:32.379Z,96780.00
2023-02-22T04:13:05.499Z,96780.59
2023-02-22T04:15:38.408Z,96785.31
2023-02-22T04:18:13.958Z,96784.56
2023-02-22T04:20:46.148Z,96790.66
2023-02-22T04:23:25.905Z,96792.00
2023-02-22T04:25:57.846Z,96794.66
2023-02-22T04:28:29.511Z,96789.31
2023-02-22T04:31:11.884Z,96791.75
2023-02-22T04:33:44.411Z,96794.16
2023-02-22T04:36:19.708Z,96797.31
2023-02-22T04:38:51.666Z,96797.31
2023-02-22T04:41:25.342Z,96793.03
2023-02-22T04:43:57.506Z,96789.63
2023-02-22T04:46:30.900Z,96798.38
2023-02-22T04:49:02.907Z,96794.66
2023-02-22T04:51:37.423Z,96796.53
2023-02-22T04:54:14.801Z,96801.28
2023-02-22T04:56:50.027Z,96796.78
2023-02-22T04:59:21.688Z,96795.19
2023-02-22T05:01:59.598Z,96791.75
2023-02-22T05:04:31.173Z,96790.13
2023-02-22T05:07:02.824Z,96785.63
2023-02-22T05:09:34.462Z,96780.28
2023-02-22T05:12:06.344Z,96777.09
2023-02-22T05:14:37.977Z,96781.38
2023-02-22T05:17:09.644Z,96778.75
2023-02-22T05:19:41.254Z,96784.78
2023-02-22T05:22:12.908Z,96778.91
2023-02-22T05:24:44.530Z,96780.75
2023-02-22T05:27:16.127Z,96786.94
2023-02-22T05:29:47.649Z,96787.19
2023-02-22T05:32:19.332Z,96789.31
2023-02-22T05:34:50.959Z,96785.34
2023-02-22T05:37:22.571Z,96784.81
2023-02-22T05:39:54.190Z,96785.88
2023-02-22T05:42:25.733Z,96784.00
2023-02-22T05:44:57.299Z,96775.25
2023-02-22T05:47:29.099Z,96778.44
2023-02-22T05:50:00.768Z,96778.22
2023-02-22T05:52:32.436Z,96780.09
2023-02-22T05:55:05.795Z,96787.53
2023-02-22T05:57:37.383Z,96777.41
2023-02-22T06:00:10.682Z,96783.22
2023-02-22T06:02:45.396Z,96780.88
2023-02-22T06:05:17.042Z,96784.06
2023-02-22T06:07:48.830Z,96777.97
2023-02-22T06:10:21.142Z,96779.28
2023-02-22T06:12:54.034Z,96784.34
2023-02-22T06:15:27.383Z,96782.22
2023-02-22T06:17:59.252Z,96787.50
2023-02-22T06:20:31.241Z,96785.66
2023-02-22T06:23:03.005Z,96787.75
2023-02-22T06:25:34.648Z,96791.69
2023-02-22T06:28:06.262Z,96787.75
2023-02-22T06:30:37.969Z,96787.75
2023-02-22T06:33:10.240Z,96793.56
2023-02-22T06:35:41.878Z,96796.72
2023-02-22T06:38:25.300Z,96790.94
2023-02-22T06:40:57.283Z,96786.72
2023-02-22T06:43:28.904Z,96795.19
2023-02-22T06:46:00.495Z,96799.94
2023-02-22T06:48:32.300Z,96805.25
2023-02-22T06:51:04.531Z,96803.94
2023-02-22T06:53:36.376Z,96808.97
2023-02-22T06:56:08.053Z,96810.31
2023-02-22T06:58:40.119Z,96810.31
2023-02-22T07:01:12.294Z,96805.28
2023-02-22T07:03:44.377Z,96806.28
2023-02-22T07:06:16.375Z,96810.50
2023-02-22T07:08:48.857Z,96813.19
2023-02-22T07:11:20.540Z,96815.00
2023-02-22T07:13:52.189Z,96822.72
2023-02-22T07:16:23.777Z,96819.16
2023-02-22T07:18:55.428Z,96821.63
2023-02-22T07:21:29.112Z,96822.78
2023-02-22T07:24:00.759Z,96818.50
2023-02-22T07:26:38.886Z,96826.75
2023-02-22T07:29:10.462Z,96826.78
2023-02-22T07:31:42.035Z,96824.00
2023-02-22T07:34:13.867Z,96815.88
2023-02-22T07:36:45.638Z,96827.59
2023-02-22T07:39:17.302Z,96821.31
2023-02-22T07:41:48.922Z,96823.31
2023-02-22T07:44:27.565Z,96818.28
2023-02-22T07:46:59.228Z,96817.72
2023-02-22T07:49:30.882Z,96826.81
2023-02-22T07:52:02.746Z,96818.91
2023-02-22T07:54:34.339Z,96816.69
2023-02-22T07:57:05.928Z,96812.13
2023-02-22T07:59:37.490Z,96820.53
2023-02-22T08:02:17.086Z,96815.78
2023-02-22T08:04:48.688Z,96816.72
2023-02-22T08:07:20.280Z,96817.41
2023-02-22T08:09:51.921Z,96820.78
2023-02-22T08:12:23.506Z,96819.22
2023-02-22T08:14:55.058Z,96827.84
2023-02-22T08:17:26.606Z,96820.34
2023-02-22T08:19:58.164Z,96821.44
2023-02-22T08:22:29.726Z,96828.81
2023-02-22T08:25:01.290Z,96826.25
2023-02-22T08:27:32.873Z,96830.91
2023-02-22T08:30:05.537Z,96832.78
2023-02-22T08:32:37.160Z,96829.09
2023-02-22T08:35:09.260Z,96823.16
2023-02-22T08:37:44.777Z,96833.88
2023-02-22T08:40:19.260Z,96837.00
2023-02-22T08:42:51.113Z,96828.94
2023-02-22T08:45:23.188Z,96835.25
2023-02-22T08:47:55.133Z,96839.34
2023-02-22T08:50:29.893Z,96842.63
2023-02-22T08:53:03.598Z,96840.75
2023-02-22T08:55:38.567Z,96836.28
2023-02-22T08:58:10.768Z,96829.72
2023-02-22T09:00:42.943Z,96824.50
2023-02-22T09:03:15.568Z,96826.88
2023-02-22T09:05:47.301Z,96832.56
2023-02-22T09:08:19.679Z,96823.94
2023-02-22T09:10:52.013Z,96823.94
2023-02-22T09:13:23.548Z,96820.28
2023-02-22T09:15:55.179Z,96817.97
2023-02-22T09:18:39.033Z,96813.56
2023-02-22T09:21:15.333Z,96823.06
2023-02-22T09:23:47.964Z,96818.91
2023-02-22T09:26:19.570Z,96810.94
2023-02-22T09:28:51.219Z,96812.38
2023-02-22T09:31:23.108Z,96816.09
2023-02-22T09:33:54.929Z,96810.50
2023-02-22T09:36:26.529Z,96815.31
2023-02-22T09:38:58.121Z,96814.06
2023-02-22T09:41:54.377Z,96809.59
2023-02-22T09:45:12.290Z,96813.03
2023-02-22T09:47:50.553Z,96813.91
2023-02-22T09:50:30.318Z,96813.34
2023-02-22T09:53:20.228Z,96811.81
2023-02-22T09:55:54.042Z,96806.22
2023-02-22T09:58:40.748Z,96817.25
2023-02-22T10:01:16.605Z,96809.19
2023-02-22T10:04:01.238Z,96805.69
2023-02-22T10:06:35.389Z,96817.00
2023-02-22T10:09:06.954Z,96803.47
2023-02-22T10:12:10.089Z,96803.56
2023-02-22T10:14:44.720Z,96804.97
2023-02-22T10:17:39.732Z,96812.66
2023-02-22T10:20:23.969Z,96813.03
2023-02-22T10:23:32.143Z,96796.97
2023-02-22T10:26:23.098Z,96801.00
2023-02-22T10:29:02.805Z,96791.66
2023-02-22T10:31:43.977Z,96798.69
2023-02-22T10:34:26.245Z,96800.63
2023-02-22T10:37:24.715Z,96799.50
2023-02-22T10:40:18.400Z,96800.13
2023-02-22T10:42:50.374Z,96800.44
2023-02-22T10:45:26.820Z,96797.69
2023-02-22T10:48:05.581Z,96802.84
2023-02-22T10:50:42.133Z,96806.75
2023-02-22T10:53:14.779Z,96806.59
2023-02-22T10:56:06.601Z,96807.66
2023-02-22T10:59:03.132Z,96804.06
2023-02-22T11:01:39.491Z,96804.56
2023-02-22T11:04:20.738Z,96801.69
2023-02-22T11:07:01.289Z,96798.72
2023-02-22T11:09:49.633Z,96795.63
2023-02-22T11:12:32.124Z,96795.75
2023-02-22T11:15:28.414Z,96786.88
2023-02-22T11:18:00.124Z,96778.34
2023-02-22T11:20:39.280Z,96781.47
2023-02-22T11:23:11.030Z,96779.44
2023-02-22T11:25:43.120Z,96778.88
2023-02-22T11:28:28.004Z,96777.41
2023-02-22T11:31:13.917Z,96782.13
2023-02-22T11:34:00.127Z,96773.34
2023-02-22T11:36:37.920Z,96775.00
2023-02-22T11:39:24.759Z,96778.66
2023-02-22T11:41:56.736Z,96779.19
2023-02-22T11:44:31.612Z,96766.72
2023-02-22T11:47:03.593Z,96762.38
2023-02-22T11:49:44.071Z,96763.97
2023-02-22T11:52:39.295Z,96757.97
2023-02-22T11:55:36.341Z,96762.13
2023-02-22T11:58:48.406Z,96754.53
2023-02-22T12:01:37.266Z,96755.72
2023-02-22T12:04:31.926Z,96740.31
2023-02-22T12:07:18.666Z,96740.56
2023-02-22T12:10:00.644Z,96746.28
2023-02-22T12:12:41.413Z,96745.25
2023-02-22T12:15:28.908Z,96736.59
2023-02-22T12:18:09.983Z,96739.50
2023-02-22T12:20:51.373Z,96741.69
2023-02-22T12:23:45.821Z,96742.88
2023-02-22T12:26:29.515Z,96738.44
2023-02-22T12:29:11.398Z,96734.88
2023-02-22T12:31:49.838Z,96733.94
2023-02-22T12:34:27.549Z,96733.81
2023-02-22T12:37:23.958Z,96732.31
2023-02-22T12:40:06.004Z,96726.88
2023-02-22T12:42:55.642Z,96736.66
2023-02-22T12:45:41.637Z,96732.28
2023-02-22T12:48:15.913Z,96729.31
2023-02-22T12:50:55.448Z,96727.00
2023-02-22T12:53:44.956Z,96729.94
2023-02-22T12:56:32.684Z,96722.50
2023-02-22T12:59:20.763Z,96727.44
2023-02-22T13:02:00.561Z,96726.53
2023-02-22T13:04:32.153Z,96720.41
2023-02-22T13:07:29.795Z,96720.78
2023-02-22T13:10:36.583Z,96716.66
2023-02-22T13:13:51.001Z,96715.31
2023-02-22T13:16:51.685Z,96719.09
2023-02-22T13:19:42.937Z,96718.06
2023-02-22T13:22:34.966Z,96717.22
2023-02-22T13:25:27.717Z,96715.75
2023-02-22T13:28:17.363Z,96710.97
2023-02-22T13:31:14.930Z,96717.88
2023-02-22T13:34:09.866Z,96709.72
2023-02-22T13:36:59.541Z,96712.25
2023-02-22T13:39:49.478Z,96709.50
2023-02-22T13:42:47.346Z,96708.91
2023-02-22T13:45:40.673Z,96702.38
2023-02-22T13:48:32.329Z,96708.09
2023-02-22T13:51:13.686Z,96699.94
2023-02-22T13:53:55.254Z,96702.78
2023-02-22T13:56:28.720Z,96710.63
2023-02-22T13:59:03.534Z,96705.00
2023-02-22T14:01:48.164Z,96713.34
2023-02-22T14:04:29.334Z,96703.06
2023-02-22T14:07:21.838Z,96699.88
2023-02-22T14:09:56.220Z,96697.78
2023-02-22T14:12:30.568Z,96696.34
2023-02-22T14:15:26.534Z,96699.88
2023-02-22T14:18:03.453Z,96698.19
2023-02-22T14:20:38.006Z,96697.91
2023-02-22T14:23:33.997Z,96705.94
2023-02-22T14:26:14.932Z,96694.47
2023-02-22T14:29:00.648Z,96703.56
2023-02-22T14:31:54.839Z,96699.44
2023-02-22T14:34:48.030Z,96699.69
2023-02-22T14:37:35.807Z,96689.56
2023-02-22T14:40:28.426Z,96692.94
2023-02-22T14:43:20.399Z,96705.28
2023-02-22T14:45:55.650Z,96703.13
2023-02-22T14:48:41.278Z,96699.75
2023-02-22T14:51:22.291Z,96704.03
2023-02-22T14:54:00.106Z,96695.53
2023-02-22T14:56:38.718Z,96694.91
2023-02-22T14:59:18.991Z,96693.31
2023-02-22T15:02:11.957Z,96700.44
2023-02-22T15:04:54.992Z,96691.59
2023-02-22T15:07:30.110Z,96700.13
2023-02-22T15:10:06.650Z,96698.56
2023-02-22T15:12:38.293Z,96706.16
2023-02-22T15:15:18.626Z,96708.59
2023-02-22T15:17:58.466Z,96716.84
2023-02-22T15:20:30.547Z,96708.03
2023-02-22T15:23:02.339Z,96710.84
2023-02-22T15:25:34.163Z,96708.13
2023-02-22T15:28:06.100Z,96706.72
2023-02-22T15:30:37.773Z,96704.69
2023-02-22T15:33:19.602Z,96708.63
2023-02-22T15:35:57.770Z,96703.78
2023-02-22T15:38:30.972Z,96713.84
2023-02-22T15:41:05.829Z,96709.50
2023-02-22T15:43:37.384Z,96711.16
2023-02-22T15:46:09.514Z,96709.31
2023-02-22T15:48:41.117Z,96710.09
2023-02-22T15:51:15.300Z,96711.69
2023-02-22T15:53:50.895Z,96711.19
2023-02-22T15:56:29.257Z,96712.75
2023-02-22T15:59:09.202Z,96712.41
2023-02-22T16:01:45.367Z,96704.31
2023-02-22T16:04:23.737Z,96709.81
2023-02-22T16:07:08.534Z,96710.84
2023-02-22T16:09:46.666Z,96716.81
2023-02-22T16:12:21.232Z,96710.84
2023-02-22T16:14:52.843Z,96712.84
2023-02-22T16:17:44.572Z,96706.25
2023-02-22T16:20:21.203Z,96712.91
2023-02-22T16:22:57.980Z,96709.47
2023-02-22T16:25:33.612Z,96707.34
2023-02-22T16:28:26.847Z,96705.66
2023-02-22T16:30:58.842Z,96705.28
2023-02-22T16:33:30.506Z,96704.66
2023-02-22T16:36:06.951Z,96699.19
2023-02-22T16:38:38.806Z,96701.78
2023-02-22T16:41:10.508Z,96701.41
2023-02-22T16:43:43.310Z,96705.97
2023-02-22T16:46:15.077Z,96696.72
2023-02-22T16:48:46.829Z,96694.19
2023-02-22T16:51:26.649Z,96694.22
2023-02-22T16:53:58.494Z,96697.28
2023-02-22T16:56:31.190Z,96702.19
2023-02-22T16:59:11.213Z,96705.94
2023-02-22T17:01:43.457Z,96705.34
2023-02-22T17:04:26.074Z,96699.41
2023-02-22T17:06:57.690Z,96702.19
2023-02-22T17:09:29.288Z,96696.25
2023-02-22T17:12:02.365Z,96698.00
2023-02-22T17:14:35.936Z,96700.69
2023-02-22T17:17:11.875Z,96702.75
2023-02-22T17:19:43.715Z,96709.38
2023-02-22T17:22:21.430Z,96703.13
2023-02-22T17:24:53.113Z,96715.91
2023-02-22T17:27:24.638Z,96714.19
2023-02-22T17:29:56.221Z,96721.09
2023-02-22T17:32:27.950Z,96721.66
2023-02-22T17:35:02.405Z,96717.34
2023-02-22T17:37:34.124Z,96717.69
2023-02-22T17:40:06.315Z,96727.75
2023-02-22T17:42:37.917Z,96723.63
2023-02-22T17:45:12.013Z,96728.56
2023-02-22T17:47:44.100Z,96728.38
2023-02-22T17:50:16.537Z,96733.59
2023-02-22T17:52:49.449Z,96735.16
2023-02-22T17:55:22.173Z,96735.84
2023-02-22T17:57:57.323Z,96731.81
2023-02-22T18:00:34.768Z,96736.00
2023-02-22T18:03:09.839Z,96733.94
2023-02-22T18:05:55.659Z,96735.41
2023-02-22T18:08:29.599Z,96736.00
2023-02-22T18:11:04.228Z,96737.88
2023-02-22T18:13:35.970Z,96735.78
2023-02-22T18:16:10.980Z,96734.97
2023-02-22T18:18:42.636Z,96736.50
2023-02-22T18:21:14.398Z,96728.16
2023-02-22T18:23:46.156Z,96730.91
2023-02-22T18:26:20.328Z,96728.91
2023-02-22T18:28:52.524Z,96727.41
2023-02-22T18:31:24.137Z,96721.19
2023-02-22T18:33:56.312Z,96721.66
2023-02-22T18:36:28.471Z,96714.25
2023-02-22T18:39:00.482Z,96722.84
2023-02-22T18:41:32.159Z,96719.28
2023-02-22T18:44:05.033Z,96714.91
2023-02-22T18:46:36.884Z,96712.47
2023-02-22T18:49:11.879Z,96713.16
2023-02-22T18:51:43.531Z,96715.09
2023-02-22T18:54:15.241Z,96711.78
2023-02-22T18:56:46.957Z,96706.75
2023-02-22T18:59:18.696Z,96714.34
2023-02-22T19:01:50.554Z,96712.47
2023-02-22T19:04:22.134Z,96703.47
2023-02-22T19:06:55.186Z,96716.13
2023-02-22T19:09:26.881Z,96712.94
2023-02-22T19:11:58.511Z,96708.31
2023-02-22T19:14:30.195Z,96708.22
2023-02-22T19:17:02.015Z,96714.06
2023-02-22T19:19:34.813Z,96703.97
2023-02-22T19:22:06.477Z,96709.69
2023-02-22T19:24:38.117Z,96707.56
2023-02-22T19:27:11.102Z,96709.81
2023-02-22T19:29:42.783Z,96702.66
2023-02-22T19:32:14.445Z,96704.88
2023-02-22T19:34:46.883Z,96707.72
2023-02-22T19:37:19.231Z,96707.03
2023-02-22T19:39:50.894Z,96705.84
2023-02-22T19:42:22.629Z,96705.03
2023-02-22T19:44:54.204Z,96704.97
2023-02-22T19:47:25.931Z,96703.19
2023-02-22T19:49:59.250Z,96701.19
2023-02-22T19:52:31.900Z,96701.78
2023-02-22T19:55:03.570Z,96707.56
2023-02-22T19:57:35.213Z,96704.28
2023-02-22T20:00:07.575Z,96709.69
2023-02-22T20:02:42.861Z,96706.94
2023-02-22T20:05:14.420Z,96710.84
2023-02-22T20:07:46.092Z,96711.72
2023-02-22T20:10:17.989Z,96707.88
2023-02-22T20:12:49.853Z,96704.81
2023-02-22T20:15:21.684Z,96705.16
2023-02-22T20:17:54.571Z,96710.69
2023-02-22T20:20:26.653Z,96706.75
2023-02-22T20:22:58.861Z,96706.47
2023-02-22T20:25:30.581Z,96705.94
2023-02-22T20:28:02.403Z,96706.59
2023-02-22T20:30:37.146Z,96699.06
2023-02-22T20:33:09.012Z,96705.16
2023-02-22T20:35:40.877Z,96715.50
2023-02-22T20:38:13.918Z,96702.31
2023-02-22T20:40:45.533Z,96705.84
2023-02-22T20:43:17.120Z,96709.50
2023-02-22T20:45:48.700Z,96708.03
2023-02-22T20:48:20.254Z,96708.22
2023-02-22T20:50:51.869Z,96710.31
2023-02-22T20:53:23.917Z,96714.66
2023-02-22T20:55:55.489Z,96706.69
2023-02-22T20:58:27.496Z,96710.53
2023-02-22T21:01:07.891Z,96705.97
2023-02-22T21:03:41.144Z,96696.94
2023-02-22T21:06:15.190Z,96711.78
2023-02-22T21:08:54.858Z,96711.44
2023-02-22T21:11:29.596Z,96706.72
2023-02-22T21:14:02.405Z,96710.53
2023-02-22T21:16:36.774Z,96705.81
2023-02-22T21:19:11.942Z,96700.88
2023-02-22T21:21:43.586Z,96711.19
2023-02-22T21:24:15.434Z,96713.19
2023-02-22T21:26:47.064Z,96715.28
2023-02-22T21:29:19.445Z,96716.34
2023-02-22T21:31:51.170Z,96711.13
2023-02-22T21:34:22.802Z,96709.09
2023-02-22T21:36:54.517Z,96711.19
2023-02-22T21:39:26.196Z,96714.41
2023-02-22T21:41:57.902Z,96715.03
2023-02-22T21:44:29.609Z,96710.75
2023-02-22T21:47:01.265Z,96713.69
2023-02-22T21:49:32.993Z,96714.81
2023-02-22T21:52:04.707Z,96716.84
2023-02-22T21:54:36.452Z,96714.56
2023-02-22T21:57:08.996Z,96708.72
2023-02-22T21:59:40.548Z,96715.84
2023-02-22T22:02:12.150Z,96711.03
2023-02-22T22:04:43.740Z,96707.63
2023-02-22T22:07:15.335Z,96697.19
2023-02-22T22:09:46.906Z,96693.56
2023-02-22T22:12:18.864Z,96698.44
2023-02-22T22:14:52.600Z,96700.81
2023-02-22T22:17:24.237Z,96700.09
2023-02-22T22:19:55.803Z,96692.78
2023-02-22T22:22:27.379Z,96700.69
2023-02-22T22:24:59.000Z,96691.50
2023-02-22T22:27:30.729Z,96700.63
2023-02-22T22:30:02.302Z,96696.63
2023-02-22T22:32:34.389Z,96694.66
2023-02-22T22:35:08.690Z,96689.50
2023-02-22T22:37:42.368Z,96697.94
2023-02-22T22:40:14.238Z,96688.63
2023-02-22T22:42:46.370Z,96695.44
2023-02-22T22:45:17.993Z,96681.84
2023-02-22T22:47:49.572Z,96680.66
2023-02-22T22:50:21.172Z,96684.22
2023-02-22T22:52:53.649Z,96675.81
2023-02-22T22:55:25.305Z,96672.69
2023-02-22T22:57:56.884Z,96676.69
2023-02-22T23:00:28.462Z,96671.47
2023-02-22T23:03:00.603Z,96678.88
2023-02-22T23:05:40.089Z,96674.66
2023-02-22T23:08:11.722Z,96673.66
2023-02-22T23:10:43.291Z,96680.41
2023-02-22T23:13:15.021Z,96678.34
2023-02-22T23:15:46.858Z,96677.78
2023-02-22T23:18:18.508Z,96673.06
2023-02-22T23:20:50.189Z,96677.84
2023-02-22T23:23:24.110Z,96680.38
2023-02-22T23:26:08.311Z,96675.84
2023-02-22T23:28:41.329Z,96672.56
2023-02-22T23:31:16.296Z,96671.38
2023-02-22T23:33:47.998Z,96665.50
2023-02-22T23:36:20.245Z,96670.78
2023-02-22T23:38:51.884Z,96667.22
2023-02-22T23:41:23.473Z,96668.91
2023-02-22T23:43:55.656Z,96669.59
2023-02-22T23:46:27.345Z,96668.00
2023-02-22T23:48:58.981Z,96661.13
2023-02-22T23:51:31.540Z,96659.56
2023-02-22T23:54:03.185Z,96668.28
2023-02-22T23:56:36.987Z,96669.69
2023-02-22T23:59:10.737Z,96661.38
